sensor_id;sensor_type;location;lat;lon;timestamp;pressure;altitude;pressure_sealevel;temperature;humidity
62103;BME280;48077;48.104;11.702;2023-04-27T00:01:50;95536.84;;;2.93;100.00
62103;BME280;48077;48.104;11.702;2023-04-27T00:07:41;95527.97;;;2.79;100.00
62103;BME280;48077;48.104;11.702;2023-04-27T00:10:05;95525.88;;;2.75;100.00
62103;BME280;48077;48.104;11.702;2023-04-27T00:12:29;95513.44;;;2.69;100.00
62103;BME280;48077;48.104;11.702;2023-04-27T00:14:52;95516.69;;;2.71;100.00
62103;BME280;48077;48.104;11.702;2023-04-27T00:17:16;95519.16;;;2.72;100.00
62103;BME280;48077;48.104;11.702;2023-04-27T00:19:39;95517.53;;;2.71;100.00
62103;BME280;48077;48.104;11.702;2023-04-27T00:22:04;95501.53;;;2.58;100.00
62103;BME280;48077;48.104;11.702;2023-04-27T00:24:28;95494.66;;;2.57;100.00
62103;BME280;48077;48.104;11.702;2023-04-27T00:26:51;95517.25;;;2.66;100.00
62103;BME280;48077;48.104;11.702;2023-04-27T00:29:15;95526.59;;;2.69;100.00
62103;BME280;48077;48.104;11.702;2023-04-27T00:31:57;95521.53;;;2.67;100.00
62103;BME280;48077;48.104;11.702;2023-04-27T00:34:25;95472.44;;;2.30;100.00
62103;BME280;48077;48.104;11.702;2023-04-27T00:36:48;95414.06;;;1.96;100.00
62103;BME280;48077;48.104;11.702;2023-04-27T00:39:12;95512.44;;;2.55;100.00
62103;BME280;48077;48.104;11.702;2023-04-27T00:41:38;95448.84;;;2.21;100.00
62103;BME280;48077;48.104;11.702;2023-04-27T00:44:01;95480.88;;;2.40;100.00
62103;BME280;48077;48.104;11.702;2023-04-27T00:46:25;95453.53;;;2.26;100.00
62103;BME280;48077;48.104;11.702;2023-04-27T00:48:50;95515.81;;;2.63;100.00
62103;BME280;48077;48.104;11.702;2023-04-27T00:51:13;95489.09;;;2.52;100.00
62103;BME280;48077;48.104;11.702;2023-04-27T00:53:37;95498.56;;;2.61;100.00
62103;BME280;48077;48.104;11.702;2023-04-27T00:56:00;95439.41;;;2.27;100.00
62103;BME280;48077;48.104;11.702;2023-04-27T00:58:24;95467.78;;;2.47;100.00
62103;BME280;48077;48.104;11.702;2023-04-27T01:00:48;95469.41;;;2.48;100.00
62103;BME280;48077;48.104;11.702;2023-04-27T01:03:11;95421.88;;;2.19;100.00
62103;BME280;48077;48.104;11.702;2023-04-27T01:05:36;95510.69;;;2.77;100.00
62103;BME280;48077;48.104;11.702;2023-04-27T01:07:59;95460.06;;;2.45;100.00
62103;BME280;48077;48.104;11.702;2023-04-27T01:10:23;95433.28;;;2.27;100.00
62103;BME280;48077;48.104;11.702;2023-04-27T01:12:46;95474.50;;;2.49;100.00
62103;BME280;48077;48.104;11.702;2023-04-27T01:15:10;95462.63;;;2.38;100.00
62103;BME280;48077;48.104;11.702;2023-04-27T01:17:33;95431.31;;;2.29;100.00
62103;BME280;48077;48.104;11.702;2023-04-27T01:19:57;95515.63;;;2.80;100.00
62103;BME280;48077;48.104;11.702;2023-04-27T01:22:21;95449.47;;;2.38;100.00
62103;BME280;48077;48.104;11.702;2023-04-27T01:24:45;95426.41;;;2.26;100.00
62103;BME280;48077;48.104;11.702;2023-04-27T01:27:09;95468.88;;;2.52;100.00
62103;BME280;48077;48.104;11.702;2023-04-27T01:29:32;95515.44;;;2.81;100.00
62103;BME280;48077;48.104;11.702;2023-04-27T01:31:55;95470.31;;;2.55;100.00
62103;BME280;48077;48.104;11.702;2023-04-27T01:34:19;95392.75;;;2.06;100.00
62103;BME280;48077;48.104;11.702;2023-04-27T01:36:42;95493.38;;;2.68;100.00
62103;BME280;48077;48.104;11.702;2023-04-27T01:39:05;95496.53;;;2.78;100.00
62103;BME280;48077;48.104;11.702;2023-04-27T01:41:31;95499.81;;;2.80;100.00
62103;BME280;48077;48.104;11.702;2023-04-27T01:43:54;95520.22;;;2.93;100.00
62103;BME280;48077;48.104;11.702;2023-04-27T01:46:18;95441.28;;;2.48;100.00
62103;BME280;48077;48.104;11.702;2023-04-27T01:48:41;95458.69;;;2.64;100.00
62103;BME280;48077;48.104;11.702;2023-04-27T01:51:05;95426.56;;;2.39;100.00
62103;BME280;48077;48.104;11.702;2023-04-27T01:53:28;95441.56;;;2.38;100.00
62103;BME280;48077;48.104;11.702;2023-04-27T01:55:52;95464.97;;;2.48;100.00
62103;BME280;48077;48.104;11.702;2023-04-27T01:58:15;95463.97;;;2.49;100.00
62103;BME280;48077;48.104;11.702;2023-04-27T02:00:41;95451.00;;;2.33;100.00
62103;BME280;48077;48.104;11.702;2023-04-27T02:03:04;95465.06;;;2.40;100.00
62103;BME280;48077;48.104;11.702;2023-04-27T02:05:28;95530.78;;;2.78;100.00
62103;BME280;48077;48.104;11.702;2023-04-27T02:07:51;95467.88;;;2.38;100.00
62103;BME280;48077;48.104;11.702;2023-04-27T02:10:14;95525.88;;;2.75;100.00
62103;BME280;48077;48.104;11.702;2023-04-27T02:12:38;95519.97;;;2.73;100.00
62103;BME280;48077;48.104;11.702;2023-04-27T02:15:01;95526.50;;;2.77;100.00
62103;BME280;48077;48.104;11.702;2023-04-27T02:17:26;95522.44;;;2.74;100.00
62103;BME280;48077;48.104;11.702;2023-04-27T02:19:51;95522.34;;;2.68;100.00
62103;BME280;48077;48.104;11.702;2023-04-27T02:22:14;95533.41;;;2.78;100.00
62103;BME280;48077;48.104;11.702;2023-04-27T02:24:38;95532.59;;;2.77;100.00
62103;BME280;48077;48.104;11.702;2023-04-27T02:27:01;95496.47;;;2.56;100.00
62103;BME280;48077;48.104;11.702;2023-04-27T02:29:29;95521.72;;;2.66;100.00
62103;BME280;48077;48.104;11.702;2023-04-27T02:31:53;95469.16;;;2.28;100.00
62103;BME280;48077;48.104;11.702;2023-04-27T02:34:16;95475.41;;;2.27;100.00
62103;BME280;48077;48.104;11.702;2023-04-27T02:36:39;95474.69;;;2.18;100.00
62103;BME280;48077;48.104;11.702;2023-04-27T02:39:03;95517.09;;;2.53;100.00
62103;BME280;48077;48.104;11.702;2023-04-27T02:41:26;95501.72;;;2.41;100.00
62103;BME280;48077;48.104;11.702;2023-04-27T02:43:50;95551.31;;;2.68;100.00
62103;BME280;48077;48.104;11.702;2023-04-27T02:46:14;95538.88;;;2.61;100.00
62103;BME280;48077;48.104;11.702;2023-04-27T02:48:37;95508.19;;;2.39;100.00
62103;BME280;48077;48.104;11.702;2023-04-27T02:51:02;95516.38;;;2.44;100.00
62103;BME280;48077;48.104;11.702;2023-04-27T02:53:26;95534.78;;;2.44;100.00
62103;BME280;48077;48.104;11.702;2023-04-27T02:55:50;95516.97;;;2.31;100.00
62103;BME280;48077;48.104;11.702;2023-04-27T02:58:14;95479.63;;;1.98;100.00
62103;BME280;48077;48.104;11.702;2023-04-27T03:00:38;95508.16;;;2.09;100.00
62103;BME280;48077;48.104;11.702;2023-04-27T03:03:03;95500.88;;;1.96;100.00
62103;BME280;48077;48.104;11.702;2023-04-27T03:05:26;95500.31;;;1.86;100.00
62103;BME280;48077;48.104;11.702;2023-04-27T03:07:51;95528.81;;;1.97;100.00
62103;BME280;48077;48.104;11.702;2023-04-27T03:10:14;95444.16;;;1.41;100.00
62103;BME280;48077;48.104;11.702;2023-04-27T03:12:37;95537.41;;;1.91;100.00
62103;BME280;48077;48.104;11.702;2023-04-27T03:15:01;95553.59;;;2.03;100.00
62103;BME280;48077;48.104;11.702;2023-04-27T03:17:24;95512.34;;;1.80;100.00
62103;BME280;48077;48.104;11.702;2023-04-27T03:19:48;95539.34;;;1.97;100.00
62103;BME280;48077;48.104;11.702;2023-04-27T03:22:11;95511.88;;;1.77;100.00
62103;BME280;48077;48.104;11.702;2023-04-27T03:24:34;95516.50;;;1.75;100.00
62103;BME280;48077;48.104;11.702;2023-04-27T03:26:58;95539.66;;;1.79;100.00
62103;BME280;48077;48.104;11.702;2023-04-27T03:29:21;95533.63;;;1.71;100.00
62103;BME280;48077;48.104;11.702;2023-04-27T03:31:44;95495.75;;;1.42;100.00
62103;BME280;48077;48.104;11.702;2023-04-27T03:34:08;95515.19;;;1.56;100.00
62103;BME280;48077;48.104;11.702;2023-04-27T03:36:31;95528.25;;;1.64;100.00
62103;BME280;48077;48.104;11.702;2023-04-27T03:38:54;95508.56;;;1.60;100.00
62103;BME280;48077;48.104;11.702;2023-04-27T03:41:18;95484.34;;;1.50;100.00
62103;BME280;48077;48.104;11.702;2023-04-27T03:43:41;95526.50;;;1.79;100.00
62103;BME280;48077;48.104;11.702;2023-04-27T03:46:05;95552.03;;;1.94;100.00
62103;BME280;48077;48.104;11.702;2023-04-27T03:48:28;95535.38;;;1.78;100.00
62103;BME280;48077;48.104;11.702;2023-04-27T03:50:51;95520.94;;;1.74;100.00
62103;BME280;48077;48.104;11.702;2023-04-27T03:53:15;95524.69;;;1.80;100.00
62103;BME280;48077;48.104;11.702;2023-04-27T03:55:39;95538.59;;;1.89;100.00
62103;BME280;48077;48.104;11.702;2023-04-27T03:58:03;95496.91;;;1.63;100.00
62103;BME280;48077;48.104;11.702;2023-04-27T04:00:26;95544.66;;;1.89;100.00
62103;BME280;48077;48.104;11.702;2023-04-27T04:02:50;95536.34;;;1.86;100.00
62103;BME280;48077;48.104;11.702;2023-04-27T04:05:14;95491.66;;;1.63;100.00
62103;BME280;48077;48.104;11.702;2023-04-27T04:07:37;95539.88;;;1.93;100.00
62103;BME280;48077;48.104;11.702;2023-04-27T04:10:01;95522.16;;;1.87;100.00
62103;BME280;48077;48.104;11.702;2023-04-27T04:12:24;95572.34;;;2.23;100.00
62103;BME280;48077;48.104;11.702;2023-04-27T04:14:48;95550.72;;;2.13;100.00
62103;BME280;48077;48.104;11.702;2023-04-27T04:17:12;95561.53;;;2.18;100.00
62103;BME280;48077;48.104;11.702;2023-04-27T04:19:35;95599.59;;;2.45;100.00
62103;BME280;48077;48.104;11.702;2023-04-27T04:21:58;95587.06;;;2.47;100.00
62103;BME280;48077;48.104;11.702;2023-04-27T04:24:22;95499.44;;;1.94;100.00
62103;BME280;48077;48.104;11.702;2023-04-27T04:26:45;95532.31;;;2.13;100.00
62103;BME280;48077;48.104;11.702;2023-04-27T04:29:09;95517.56;;;2.03;100.00
62103;BME280;48077;48.104;11.702;2023-04-27T04:31:32;95579.72;;;2.42;100.00
62103;BME280;48077;48.104;11.702;2023-04-27T04:33:56;95523.84;;;2.02;100.00
62103;BME280;48077;48.104;11.702;2023-04-27T04:36:19;95528.84;;;2.12;100.00
62103;BME280;48077;48.104;11.702;2023-04-27T04:38:42;95578.81;;;2.50;100.00
62103;BME280;48077;48.104;11.702;2023-04-27T04:41:06;95534.50;;;2.24;100.00
62103;BME280;48077;48.104;11.702;2023-04-27T04:43:30;95541.28;;;2.33;100.00
62103;BME280;48077;48.104;11.702;2023-04-27T04:45:53;95590.19;;;2.66;100.00
62103;BME280;48077;48.104;11.702;2023-04-27T04:48:16;95583.00;;;2.74;100.00
62103;BME280;48077;48.104;11.702;2023-04-27T04:50:41;95566.47;;;2.66;100.00
62103;BME280;48077;48.104;11.702;2023-04-27T04:53:05;95573.09;;;2.76;100.00
62103;BME280;48077;48.104;11.702;2023-04-27T04:55:28;95541.25;;;2.56;100.00
62103;BME280;48077;48.104;11.702;2023-04-27T04:57:52;95616.59;;;3.02;100.00
62103;BME280;48077;48.104;11.702;2023-04-27T05:00:15;95596.06;;;2.97;100.00
62103;BME280;48077;48.104;11.702;2023-04-27T05:02:39;95620.78;;;3.11;100.00
62103;BME280;48077;48.104;11.702;2023-04-27T05:05:03;95584.47;;;2.92;100.00
62103;BME280;48077;48.104;11.702;2023-04-27T05:07:26;95549.31;;;2.70;100.00
62103;BME280;48077;48.104;11.702;2023-04-27T05:09:49;95590.88;;;3.04;100.00
62103;BME280;48077;48.104;11.702;2023-04-27T05:12:13;95591.97;;;3.10;100.00
62103;BME280;48077;48.104;11.702;2023-04-27T05:14:36;95539.97;;;2.82;100.00
62103;BME280;48077;48.104;11.702;2023-04-27T05:17:00;95567.63;;;3.08;100.00
62103;BME280;48077;48.104;11.702;2023-04-27T05:19:23;95630.00;;;3.52;100.00
62103;BME280;48077;48.104;11.702;2023-04-27T05:21:47;95622.72;;;3.54;100.00
62103;BME280;48077;48.104;11.702;2023-04-27T05:24:11;95550.28;;;3.13;100.00
62103;BME280;48077;48.104;11.702;2023-04-27T05:26:35;95637.41;;;3.78;100.00
62103;BME280;48077;48.104;11.702;2023-04-27T05:28:58;95592.34;;;3.58;100.00
62103;BME280;48077;48.104;11.702;2023-04-27T05:31:21;95579.59;;;3.61;100.00
62103;BME280;48077;48.104;11.702;2023-04-27T05:33:45;95589.75;;;3.79;100.00
62103;BME280;48077;48.104;11.702;2023-04-27T05:36:08;95634.94;;;4.13;100.00
62103;BME280;48077;48.104;11.702;2023-04-27T05:38:32;95603.56;;;4.03;100.00
62103;BME280;48077;48.104;11.702;2023-04-27T05:41:02;95562.97;;;3.82;100.00
62103;BME280;48077;48.104;11.702;2023-04-27T05:43:25;95587.16;;;4.08;100.00
62103;BME280;48077;48.104;11.702;2023-04-27T05:45:49;95568.00;;;3.99;100.00
62103;BME280;48077;48.104;11.702;2023-04-27T05:48:13;95609.06;;;4.30;100.00
62103;BME280;48077;48.104;11.702;2023-04-27T05:50:36;95630.56;;;4.48;100.00
62103;BME280;48077;48.104;11.702;2023-04-27T05:52:59;95601.56;;;4.33;100.00
62103;BME280;48077;48.104;11.702;2023-04-27T05:55:23;95550.78;;;4.03;100.00
62103;BME280;48077;48.104;11.702;2023-04-27T05:57:46;95627.78;;;4.56;100.00
62103;BME280;48077;48.104;11.702;2023-04-27T06:00:10;95615.38;;;4.57;100.00
62103;BME280;48077;48.104;11.702;2023-04-27T06:02:34;95648.31;;;4.89;100.00
62103;BME280;48077;48.104;11.702;2023-04-27T06:04:58;95622.88;;;4.81;100.00
62103;BME280;48077;48.104;11.702;2023-04-27T06:07:21;95624.75;;;4.88;100.00
62103;BME280;48077;48.104;11.702;2023-04-27T06:09:44;95622.75;;;4.96;100.00
62103;BME280;48077;48.104;11.702;2023-04-27T06:12:08;95637.28;;;5.14;100.00
62103;BME280;48077;48.104;11.702;2023-04-27T06:14:35;95612.03;;;5.04;100.00
62103;BME280;48077;48.104;11.702;2023-04-27T06:16:59;95648.97;;;5.33;100.00
62103;BME280;48077;48.104;11.702;2023-04-27T06:19:22;95630.47;;;5.33;100.00
62103;BME280;48077;48.104;11.702;2023-04-27T06:21:46;95606.84;;;5.24;100.00
62103;BME280;48077;48.104;11.702;2023-04-27T06:24:09;95620.97;;;5.45;100.00
62103;BME280;48077;48.104;11.702;2023-04-27T06:26:32;95599.97;;;5.37;100.00
62103;BME280;48077;48.104;11.702;2023-04-27T06:28:56;95609.16;;;5.47;100.00
62103;BME280;48077;48.104;11.702;2023-04-27T06:31:19;95646.75;;;5.78;100.00
62103;BME280;48077;48.104;11.702;2023-04-27T06:33:43;95612.25;;;5.58;100.00
62103;BME280;48077;48.104;11.702;2023-04-27T06:36:06;95607.41;;;5.61;100.00
62103;BME280;48077;48.104;11.702;2023-04-27T06:38:30;95629.81;;;5.79;100.00
62103;BME280;48077;48.104;11.702;2023-04-27T06:40:53;95665.19;;;6.13;100.00
62103;BME280;48077;48.104;11.702;2023-04-27T06:43:16;95629.31;;;6.03;100.00
62103;BME280;48077;48.104;11.702;2023-04-27T06:45:40;95621.59;;;6.08;100.00
62103;BME280;48077;48.104;11.702;2023-04-27T06:48:03;95658.31;;;6.38;100.00
62103;BME280;48077;48.104;11.702;2023-04-27T06:50:27;95624.25;;;6.28;99.78
62103;BME280;48077;48.104;11.702;2023-04-27T06:52:51;95638.97;;;6.44;99.15
62103;BME280;48077;48.104;11.702;2023-04-27T06:55:14;95591.84;;;6.26;98.72
62103;BME280;48077;48.104;11.702;2023-04-27T06:57:38;95621.22;;;6.45;98.30
62103;BME280;48077;48.104;11.702;2023-04-27T07:00:01;95627.94;;;6.61;97.20
62103;BME280;48077;48.104;11.702;2023-04-27T07:02:26;95649.34;;;6.86;95.82
62103;BME280;48077;48.104;11.702;2023-04-27T07:04:50;95632.22;;;6.82;94.82
62103;BME280;48077;48.104;11.702;2023-04-27T07:07:13;95572.31;;;6.54;94.50
62103;BME280;48077;48.104;11.702;2023-04-27T07:09:37;95657.66;;;7.16;92.99
62103;BME280;48077;48.104;11.702;2023-04-27T07:12:00;95608.94;;;6.97;92.51
62103;BME280;48077;48.104;11.702;2023-04-27T07:14:23;95607.31;;;7.03;92.66
62103;BME280;48077;48.104;11.702;2023-04-27T07:16:47;95621.94;;;7.25;93.05
62103;BME280;48077;48.104;11.702;2023-04-27T07:19:10;95614.16;;;7.30;92.20
62103;BME280;48077;48.104;11.702;2023-04-27T07:21:33;95601.09;;;7.29;91.74
62103;BME280;48077;48.104;11.702;2023-04-27T07:23:57;95629.00;;;7.52;91.05
62103;BME280;48077;48.104;11.702;2023-04-27T07:26:20;95629.78;;;7.59;90.27
62103;BME280;48077;48.104;11.702;2023-04-27T07:28:46;95656.03;;;7.80;89.94
62103;BME280;48077;48.104;11.702;2023-04-27T07:31:10;95642.16;;;7.78;89.46
62103;BME280;48077;48.104;11.702;2023-04-27T07:33:33;95655.97;;;8.00;89.78
62103;BME280;48077;48.104;11.702;2023-04-27T07:35:57;95647.00;;;7.95;89.20
62103;BME280;48077;48.104;11.702;2023-04-27T07:38:21;95650.03;;;7.98;88.32
62103;BME280;48077;48.104;11.702;2023-04-27T07:40:45;95663.03;;;8.13;88.14
62103;BME280;48077;48.104;11.702;2023-04-27T07:43:09;95622.03;;;8.02;87.84
62103;BME280;48077;48.104;11.702;2023-04-27T07:45:32;95613.00;;;8.03;87.47
62103;BME280;48077;48.104;11.702;2023-04-27T07:47:57;95653.72;;;8.36;85.62
62103;BME280;48077;48.104;11.702;2023-04-27T07:50:22;95600.72;;;8.09;85.09
62103;BME280;48077;48.104;11.702;2023-04-27T07:52:46;95618.16;;;8.30;84.78
62103;BME280;48077;48.104;11.702;2023-04-27T07:55:10;95590.41;;;8.26;84.97
62103;BME280;48077;48.104;11.702;2023-04-27T07:57:33;95626.25;;;8.48;82.20
62103;BME280;48077;48.104;11.702;2023-04-27T07:59:57;95645.06;;;8.72;81.87
62103;BME280;48077;48.104;11.702;2023-04-27T08:02:20;95662.56;;;8.86;80.84
62103;BME280;48077;48.104;11.702;2023-04-27T08:04:44;95655.78;;;8.90;81.57
62103;BME280;48077;48.104;11.702;2023-04-27T08:07:07;95660.44;;;8.95;80.77
62103;BME280;48077;48.104;11.702;2023-04-27T08:09:31;95664.22;;;9.06;78.92
62103;BME280;48077;48.104;11.702;2023-04-27T08:11:54;95669.25;;;9.14;79.18
62103;BME280;48077;48.104;11.702;2023-04-27T08:14:17;95630.38;;;8.95;78.65
62103;BME280;48077;48.104;11.702;2023-04-27T08:16:42;95636.59;;;9.07;78.63
62103;BME280;48077;48.104;11.702;2023-04-27T08:19:05;95633.72;;;9.08;76.88
62103;BME280;48077;48.104;11.702;2023-04-27T08:21:28;95664.56;;;9.35;77.50
62103;BME280;48077;48.104;11.702;2023-04-27T08:23:52;95635.44;;;9.21;76.02
62103;BME280;48077;48.104;11.702;2023-04-27T08:26:15;95622.47;;;9.25;74.42
62103;BME280;48077;48.104;11.702;2023-04-27T08:28:39;95643.44;;;9.40;74.48
62103;BME280;48077;48.104;11.702;2023-04-27T08:31:02;95611.84;;;9.25;73.41
62103;BME280;48077;48.104;11.702;2023-04-27T08:33:26;95583.50;;;9.12;73.89
62103;BME280;48077;48.104;11.702;2023-04-27T08:35:49;95653.72;;;9.73;73.69
62103;BME280;48077;48.104;11.702;2023-04-27T08:38:12;95605.78;;;9.55;72.31
62103;BME280;48077;48.104;11.702;2023-04-27T08:40:41;95638.94;;;9.89;70.64
62103;BME280;48077;48.104;11.702;2023-04-27T08:43:06;95643.16;;;9.97;70.10
62103;BME280;48077;48.104;11.702;2023-04-27T08:45:30;95651.56;;;10.12;70.65
62103;BME280;48077;48.104;11.702;2023-04-27T08:47:53;95683.59;;;10.42;70.54
62103;BME280;48077;48.104;11.702;2023-04-27T08:50:17;95678.75;;;10.51;68.87
62103;BME280;48077;48.104;11.702;2023-04-27T08:52:46;95665.94;;;10.41;67.65
62103;BME280;48077;48.104;11.702;2023-04-27T08:55:09;95658.41;;;10.38;67.34
62103;BME280;48077;48.104;11.702;2023-04-27T08:57:32;95640.56;;;10.39;66.29
62103;BME280;48077;48.104;11.702;2023-04-27T08:59:56;95654.16;;;10.49;66.19
62103;BME280;48077;48.104;11.702;2023-04-27T09:02:22;95631.22;;;10.60;65.17
62103;BME280;48077;48.104;11.702;2023-04-27T09:04:45;95634.13;;;10.70;65.08
62103;BME280;48077;48.104;11.702;2023-04-27T09:07:16;95629.28;;;10.79;64.04
62103;BME280;48077;48.104;11.702;2023-04-27T09:09:40;95606.06;;;10.67;64.24
62103;BME280;48077;48.104;11.702;2023-04-27T09:12:13;95647.75;;;11.04;63.43
62103;BME280;48077;48.104;11.702;2023-04-27T09:14:37;95626.63;;;11.02;63.57
62103;BME280;48077;48.104;11.702;2023-04-27T09:17:01;95596.34;;;10.97;63.19
62103;BME280;48077;48.104;11.702;2023-04-27T09:19:25;95638.56;;;11.35;62.49
62103;BME280;48077;48.104;11.702;2023-04-27T09:21:49;95653.16;;;11.56;61.71
62103;BME280;48077;48.104;11.702;2023-04-27T09:24:13;95557.03;;;10.92;61.16
62103;BME280;48077;48.104;11.702;2023-04-27T09:26:37;95600.03;;;11.31;62.17
62103;BME280;48077;48.104;11.702;2023-04-27T09:29:00;95622.84;;;11.62;61.79
62103;BME280;48077;48.104;11.702;2023-04-27T09:31:31;95624.53;;;11.80;62.79
62103;BME280;48077;48.104;11.702;2023-04-27T09:33:54;95638.16;;;11.90;60.60
62103;BME280;48077;48.104;11.702;2023-04-27T09:36:19;95601.69;;;11.72;60.02
62103;BME280;48077;48.104;11.702;2023-04-27T09:38:42;95588.16;;;11.91;59.98
62103;BME280;48077;48.104;11.702;2023-04-27T09:41:06;95587.13;;;11.80;58.12
62103;BME280;48077;48.104;11.702;2023-04-27T09:43:30;95609.66;;;11.84;57.90
62103;BME280;48077;48.104;11.702;2023-04-27T09:45:54;95586.84;;;11.65;57.47
62103;BME280;48077;48.104;11.702;2023-04-27T09:48:20;95622.81;;;11.74;56.38
62103;BME280;48077;48.104;11.702;2023-04-27T09:50:44;95601.16;;;11.59;56.35
62103;BME280;48077;48.104;11.702;2023-04-27T09:53:11;95632.13;;;11.71;55.45
62103;BME280;48077;48.104;11.702;2023-04-27T09:55:39;95613.31;;;11.66;56.47
62103;BME280;48077;48.104;11.702;2023-04-27T09:58:23;95634.03;;;12.00;56.53
62103;BME280;48077;48.104;11.702;2023-04-27T10:04:34;95580.94;;;11.63;55.06
62103;BME280;48077;48.104;11.702;2023-04-27T10:06:50;95596.53;;;11.83;54.75
62103;BME280;48077;48.104;11.702;2023-04-27T10:09:14;95531.25;;;11.50;55.27
62103;BME280;48077;48.104;11.702;2023-04-27T10:11:42;95607.03;;;12.13;54.43
62103;BME280;48077;48.104;11.702;2023-04-27T10:14:07;95559.03;;;11.78;53.45
62103;BME280;48077;48.104;11.702;2023-04-27T10:16:48;95547.84;;;11.92;52.92
62103;BME280;48077;48.104;11.702;2023-04-27T10:19:11;95603.38;;;12.65;52.61
62103;BME280;48077;48.104;11.702;2023-04-27T10:21:35;95561.31;;;12.77;53.77
62103;BME280;48077;48.104;11.702;2023-04-27T10:24:06;95604.09;;;13.50;53.18
62103;BME280;48077;48.104;11.702;2023-04-27T10:26:30;95606.13;;;13.82;51.22
62103;BME280;48077;48.104;11.702;2023-04-27T10:29:04;95551.38;;;13.77;50.67
62103;BME280;48077;48.104;11.702;2023-04-27T10:31:29;95593.63;;;13.92;52.59
62103;BME280;48077;48.104;11.702;2023-04-27T10:33:52;95533.72;;;13.54;52.04
62103;BME280;48077;48.104;11.702;2023-04-27T10:36:16;95576.28;;;13.73;51.51
62103;BME280;48077;48.104;11.702;2023-04-27T10:38:39;95572.88;;;13.83;51.58
62103;BME280;48077;48.104;11.702;2023-04-27T10:41:04;95594.97;;;14.17;51.42
62103;BME280;48077;48.104;11.702;2023-04-27T10:43:29;95557.31;;;14.07;50.96
62103;BME280;48077;48.104;11.702;2023-04-27T10:45:53;95558.69;;;14.09;50.59
62103;BME280;48077;48.104;11.702;2023-04-27T10:48:17;95564.41;;;14.18;51.37
62103;BME280;48077;48.104;11.702;2023-04-27T10:50:41;95580.50;;;14.18;50.77
62103;BME280;48077;48.104;11.702;2023-04-27T10:53:07;95567.19;;;13.79;49.25
62103;BME280;48077;48.104;11.702;2023-04-27T10:55:30;95487.47;;;13.42;50.38
62103;BME280;48077;48.104;11.702;2023-04-27T10:57:55;95595.09;;;14.27;49.67
62103;BME280;48077;48.104;11.702;2023-04-27T11:00:27;95557.81;;;14.31;48.39
62103;BME280;48077;48.104;11.702;2023-04-27T11:02:52;95560.16;;;14.22;47.58
62103;BME280;48077;48.104;11.702;2023-04-27T11:05:23;95548.94;;;14.25;47.62
62103;BME280;48077;48.104;11.702;2023-04-27T11:07:47;95582.22;;;14.56;48.82
62103;BME280;48077;48.104;11.702;2023-04-27T11:10:14;95558.53;;;14.21;48.35
62103;BME280;48077;48.104;11.702;2023-04-27T11:12:38;95569.06;;;14.28;47.93
62103;BME280;48077;48.104;11.702;2023-04-27T11:15:02;95559.78;;;13.86;49.19
62103;BME280;48077;48.104;11.702;2023-04-27T11:17:29;95539.06;;;13.54;48.86
62103;BME280;48077;48.104;11.702;2023-04-27T11:19:52;95590.34;;;13.63;49.74
62103;BME280;48077;48.104;11.702;2023-04-27T11:22:16;95574.06;;;13.48;51.39
62103;BME280;48077;48.104;11.702;2023-04-27T11:24:46;95566.03;;;13.48;52.41
62103;BME280;48077;48.104;11.702;2023-04-27T11:27:10;95579.31;;;13.38;50.93
62103;BME280;48077;48.104;11.702;2023-04-27T11:29:37;95536.78;;;13.24;50.73
62103;BME280;48077;48.104;11.702;2023-04-27T11:32:01;95598.16;;;13.65;50.21
62103;BME280;48077;48.104;11.702;2023-04-27T11:34:24;95562.88;;;13.51;50.39
62103;BME280;48077;48.104;11.702;2023-04-27T11:36:57;95594.91;;;13.63;49.71
62103;BME280;48077;48.104;11.702;2023-04-27T11:39:36;95594.25;;;13.55;49.32
62103;BME280;48077;48.104;11.702;2023-04-27T11:42:19;95605.16;;;13.49;49.31
62103;BME280;48077;48.104;11.702;2023-04-27T11:47:16;95565.19;;;13.25;50.21
62103;BME280;48077;48.104;11.702;2023-04-27T11:49:45;95561.56;;;13.31;50.53
62103;BME280;48077;48.104;11.702;2023-04-27T11:52:09;95574.56;;;13.45;50.02
62103;BME280;48077;48.104;11.702;2023-04-27T11:54:32;95580.31;;;13.53;49.78
62103;BME280;48077;48.104;11.702;2023-04-27T11:57:04;95601.56;;;13.82;49.40
62103;BME280;48077;48.104;11.702;2023-04-27T11:59:28;95567.19;;;14.01;47.32
62103;BME280;48077;48.104;11.702;2023-04-27T12:01:51;95558.16;;;14.67;45.65
62103;BME280;48077;48.104;11.702;2023-04-27T12:04:14;95592.78;;;14.68;45.59
62103;BME280;48077;48.104;11.702;2023-04-27T12:06:38;95576.03;;;14.56;45.01
62103;BME280;48077;48.104;11.702;2023-04-27T12:09:02;95576.34;;;14.92;45.41
62103;BME280;48077;48.104;11.702;2023-04-27T12:11:26;95617.56;;;15.55;45.31
62103;BME280;48077;48.104;11.702;2023-04-27T12:13:50;95571.00;;;15.50;42.78
62103;BME280;48077;48.104;11.702;2023-04-27T12:16:13;95584.50;;;15.07;43.46
62103;BME280;48077;48.104;11.702;2023-04-27T12:18:36;95568.91;;;14.67;44.93
62103;BME280;48077;48.104;11.702;2023-04-27T12:21:00;95568.84;;;14.34;46.04
62103;BME280;48077;48.104;11.702;2023-04-27T12:23:23;95602.38;;;14.32;47.61
62103;BME280;48077;48.104;11.702;2023-04-27T12:25:46;95603.03;;;14.17;48.21
62103;BME280;48077;48.104;11.702;2023-04-27T12:28:10;95602.56;;;13.98;48.69
62103;BME280;48077;48.104;11.702;2023-04-27T12:30:34;95566.16;;;13.80;49.35
62103;BME280;48077;48.104;11.702;2023-04-27T12:32:58;95601.81;;;14.03;49.28
62103;BME280;48077;48.104;11.702;2023-04-27T12:35:22;95566.19;;;13.85;48.68
62103;BME280;48077;48.104;11.702;2023-04-27T12:37:46;95596.69;;;14.28;47.59
62103;BME280;48077;48.104;11.702;2023-04-27T12:40:10;95594.88;;;14.34;46.95
62103;BME280;48077;48.104;11.702;2023-04-27T12:42:34;95566.00;;;14.73;45.84
62103;BME280;48077;48.104;11.702;2023-04-27T12:44:57;95571.59;;;15.09;46.95
62103;BME280;48077;48.104;11.702;2023-04-27T12:47:21;95575.41;;;15.13;47.39